x

West Bermuda - 240 Nm West Of Bermuda (41048) Wave Buoy

9:50pm - Mon 27th Feb 2017 All times are UTC.

  • Sig Wave height 5.2ft
  • Swell Direction
  • Peak Period 8s
  • Average Period 5s
  • Wind
    18mph, 20mph gusts
  • Sea Temp 69°f
  • Air Temp 67°f
  • Sea Pressure 1028.9mb

More Historic Weather Station data

Upgrade to MSW Pro to gain access to the past 30 days of data for over 8000 Wavebouys and Weather Stations around the globe.

Join Pro

Comparision Forecast

View Surf forecast
   
Mon 02/27 9:50pm 5ft 8s 5s 18 20 mph 1028.9mb 69f 67f
8:50pm 5.5ft 9s 6s 18 22 mph 1029mb 69f 67f
7:50pm 5ft 8s 5s 18 20 mph 1029.1mb 69f 67f
6:50pm 5ft 8s 5s 18 22 mph 1028.9mb 69f 67f
5:50pm 5.5ft 8s 5s 18 20 mph 1029.1mb 69f 67f
4:50pm 5.5ft 8s 5s 18 22 mph 1029.3mb 69f 67f
3:50pm 6ft 8s 6s 18 22 mph 1029.7mb 69f 67f
2:50pm 5ft 8s 6s 20 22 mph 1029.2mb 69f 67f
1:50pm 5.5ft 8s 6s 18 22 mph 1029mb 69f 67f
12:50pm 5ft 8s 5s 18 22 mph 1028.6mb 69f 67f
11:50am 5ft 8s 5s 20 25 mph 1027.9mb 69f 66f
10:50am 5ft 8s 6s 20 22 mph 1026.8mb 69f 67f
9:50am 4.5ft 9s 6s 16 18 mph 1026.1mb 69f 67f
8:50am 5ft 8s 6s 13 18 mph 1025.3mb 69f 67f
7:50am 5ft 8s 6s 16 18 mph 1024.8mb 69f 67f
6:50am 5ft 8s 6s 13 16 mph 1024.8mb 69f 67f
5:50am 5ft 9s 6s 13 16 mph 1024.6mb 69f 67f
4:50am 5.5ft 8s 6s 11 16 mph 1024mb 70f 68f
3:50am 6ft 9s 7s 13 16 mph 1023.3mb 70f 68f
2:50am 5.5ft 8s 6s 11 13 mph 1022.9mb 70f 69f
1:50am 5.5ft 8s 6s 9 11 mph 1022.5mb 70f 69f
12:50am 5ft 8s 6s 7 9 mph 1021.7mb 70f 70f
Sun 02/26 11:50pm 5.5ft 8s 6s 11 13 mph 1020.9mb 70f 70f
10:50pm 5ft 6s 6s 11 13 mph 1019.9mb 70f 70f
9:50pm 5ft 7s 6s 11 13 mph 1019.2mb 70f 71f
8:50pm 5ft 8s 6s 13 16 mph 1018.4mb 70f 71f
7:50pm 5ft 7s 5s 16 18 mph 1017.8mb 70f 71f
6:50pm 5ft 8s 6s 16 18 mph 1017.3mb 70f 71f
5:50pm 5ft 8s 6s 18 20 mph 1017.3mb 70f 70f
4:50pm 5ft 8s 6s 18 20 mph 1017.5mb 70f 70f
3:50pm 5.5ft 8s 6s 18 20 mph 1017.8mb 70f 70f
2:50pm 5ft 8s 6s 18 20 mph 1017.6mb 70f 70f
1:50pm 6ft 8s 6s 18 22 mph 1017.3mb 69f 70f
12:50pm 6ft 8s 6s 18 20 mph 1016.4mb 69f 70f
11:50am 6ft 8s 6s 16 20 mph 1015.3mb 69f 70f
10:50am 5ft 8s 6s 16 20 mph 1014.6mb 69f 69f
9:50am 5.5ft 8s 6s 16 20 mph 1013.8mb 69f 69f
8:50am 6ft 8s 6s 13 18 mph 1012.9mb 69f 69f
7:50am 6ft 8s 6s 18 20 mph 1012.8mb 70f 69f
6:50am 6ft 9s 6s 20 27 mph 1012.7mb 70f 70f
5:50am 6ft 8s 6s 13 16 mph 1012.8mb 70f 70f
4:50am 7ft 9s 7s 16 18 mph 1012.6mb 70f 70f
3:50am 7ft 9s 7s 13 18 mph 1012.5mb 70f 70f
2:50am 7ft 8s 7s 13 18 mph 1012.1mb 70f 70f
1:50am 7ft 8s 7s 13 16 mph 1011.3mb 70f 70f
12:50am 6.5ft 9s 7s 9 11 mph 1010.8mb 70f 70f
Sat 02/25 11:50pm 7ft 9s 7s 11 13 mph 1010.6mb 70f 70f
10:50pm 7ft 9s 7s 9 11 mph 1009.9mb 70f 70f
9:50pm 7.5ft 9s 7s 11 13 mph 1009.6mb 70f 70f
8:50pm 7ft 9s 7s 9 11 mph 1009.1mb 70f 70f
7:50pm 7ft 8s 7s 11 13 mph 1008.7mb 70f 70f
6:50pm 8ft 8s 7s 13 16 mph 1008.6mb 70f 70f
5:50pm 8ft 9s 7s 11 13 mph 1008.6mb 70f 70f
4:50pm 8ft 9s 7s 13 16 mph 1008.9mb 70f 70f
3:50pm 8ft 9s 7s 13 18 mph 1009.3mb 70f 70f
2:50pm 8ft 8s 7s 13 18 mph 1008.9mb 70f 70f
1:50pm 8ft 9s 7s 13 16 mph 1008.7mb 70f 70f
12:50pm 9ft 8s 7s 11 16 mph 1008.3mb 70f 69f
11:50am 9ft 9s 7s 9 11 mph 1007.7mb 69f 69f
10:50am 9.5ft 9s 7s 4 7 mph 1006.9mb 69f 68f
9:50am 10ft 9s 7s 7 9 mph 1006.8mb 69f 67f
8:50am 10ft 9s 7s 9 11 mph 1006.8mb 69f 67f
7:50am 11ft 9s 8s 13 18 mph 1007.1mb 69f 67f
6:50am 11ft 10s 8s 16 18 mph 1007.7mb 69f 68f
5:50am 10.5ft 9s 7s 13 16 mph 1008.3mb 69f 70f
4:50am 12.5ft 11s 8s 13 16 mph 1008.8mb 69f 70f
3:50am 12.5ft 10s 8s 13 16 mph 1008.7mb 69f 70f
2:50am 13ft 11s 8s 16 18 mph 1008.5mb 69f 70f
1:50am 11ft 10s 7s 16 20 mph 1008.7mb 69f 69f
12:50am 12.5ft 9s 7s 20 25 mph 1008.5mb 69f 69f
Fri 02/24 11:50pm 12ft 9s 7s 22 27 mph 1008.6mb 69f 70f
10:50pm 15ft 9s 8s 25 31 mph 1008.1mb 69f 69f
9:50pm 16.5ft 10s 8s 31 38 mph 1007.6mb 69f 69f
8:50pm 15ft 10s 8s 34 40 mph 1007.8mb 69f 68f
7:50pm 15ft 10s 8s 34 43 mph 1008mb 69f 69f
6:50pm 13ft 10s 7s 31 43 mph 1008.8mb 69f 68f
5:50pm 13ft 9s 7s 29 36 mph 1009.6mb 69f 66f
4:50pm 12ft 8s 7s 34 40 mph 1010.6mb 69f 68f
3:50pm 12ft 8s 7s 31 38 mph 1011.6mb 69f 68f
2:50pm 11ft 8s 7s 29 36 mph 1012.3mb 69f 68f
1:50pm 11ft 7s 6s 31 40 mph 1012.3mb 69f 69f
12:50pm 10.5ft 8s 6s 31 40 mph 1012.5mb 69f 69f
11:50am 10ft 7s 6s 31 38 mph 1013.2mb 69f 68f
10:50am 9ft 7s 6s 29 36 mph 1012.9mb 69f 68f
9:50am 8.5ft 7s 6s 29 34 mph 1012.7mb 69f 68f
8:50am 9ft 12s 6s 29 34 mph 1012.1mb 69f 68f
7:50am 8.5ft 6s 6s 27 31 mph 1012.9mb 69f 68f
6:50am 8.5ft 12s 6s 27 31 mph 1014mb 69f 68f
5:50am 8ft 12s 6s 25 31 mph 1015mb 69f 68f
4:50am 8.5ft 12s 7s 22 27 mph 1014mb 69f 68f
3:50am 8ft 12s 6s 22 27 mph 1016.5mb 69f 68f
2:50am 8.5ft 12s 6s 22 27 mph 1016.4mb 69f 69f
1:50am 8ft 13s 6s 22 27 mph 1016.3mb 69f 68f
12:50am 8ft 13s 6s 25 29 mph 1015mb 69f 67f
Thu 02/23 11:50pm 7.5ft 11s 6s 25 27 mph 1014.8mb 69f 67f